createdAt,value
2019-04-20T00:00:40.269Z,0.28
2019-04-20T00:03:05.828Z,0.30
2019-04-20T00:05:35.035Z,0.20
2019-04-20T00:08:09.111Z,0.30
2019-04-20T00:10:42.476Z,0.17
2019-04-20T00:13:16.337Z,0.20
2019-04-20T00:15:32.999Z,0.30
2019-04-20T00:18:04.648Z,0.20
2019-04-20T00:20:35.155Z,0.20
2019-04-20T00:23:03.727Z,0.20
2019-04-20T00:25:53.227Z,0.28
2019-04-20T00:28:30.214Z,0.30
2019-04-20T00:30:58.744Z,0.35
2019-04-20T00:33:27.364Z,0.37
2019-04-20T00:35:42.163Z,0.20
2019-04-20T00:38:10.374Z,0.20
2019-04-20T00:40:39.272Z,0.28
2019-04-20T00:43:08.722Z,0.20
2019-04-20T00:45:46.731Z,0.30
2019-04-20T00:48:19.815Z,0.20
2019-04-20T00:50:51.269Z,0.30
2019-04-20T00:53:17.078Z,0.30
2019-04-20T00:55:36.143Z,0.20
2019-04-20T00:58:13.831Z,0.30
2019-04-20T01:01:01.068Z,0.28
2019-04-20T01:03:23.236Z,0.20
2019-04-20T01:05:56.743Z,0.20
2019-04-20T01:08:12.962Z,0.30
2019-04-20T01:10:47.204Z,0.40
2019-04-20T01:13:18.394Z,0.30
2019-04-20T01:15:51.624Z,0.20
2019-04-20T01:18:13.912Z,0.20
2019-04-20T01:20:43.073Z,0.20
2019-04-20T01:23:14.220Z,0.30
2019-04-20T01:25:45.086Z,0.30
2019-04-20T01:28:27.763Z,0.33
2019-04-20T01:30:50.570Z,0.20
2019-04-20T01:33:25.895Z,0.30
2019-04-20T01:35:56.959Z,0.30
2019-04-20T01:38:29.550Z,0.30
2019-04-20T01:40:40.210Z,0.23
2019-04-20T01:43:08.486Z,0.40
2019-04-20T01:45:39.557Z,0.40
2019-04-20T01:48:07.032Z,0.10
2019-04-20T01:50:38.278Z,0.30
2019-04-20T01:53:19.033Z,0.10
2019-04-20T01:55:53.349Z,0.20
2019-04-20T01:58:35.175Z,0.20
2019-04-20T02:00:51.237Z,0.10
2019-04-20T02:03:38.491Z,0.20
2019-04-20T02:06:13.032Z,0.20
2019-04-20T02:08:37.933Z,0.30
2019-04-20T02:11:07.731Z,0.47
2019-04-20T02:16:15.856Z,0.20
2019-04-20T02:18:44.196Z,0.30
2019-04-20T02:21:25.976Z,0.40
2019-04-20T02:23:44.101Z,0.40
2019-04-20T02:26:05.337Z,0.20
2019-04-20T02:29:03.309Z,0.30
2019-04-20T02:31:52.135Z,0.20
2019-04-20T02:34:16.461Z,0.20
2019-04-20T02:36:51.588Z,0.13
2019-04-20T02:39:30.991Z,0.20
2019-04-20T02:41:58.306Z,0.17
2019-04-20T02:44:31.907Z,0.30
2019-04-20T02:46:49.598Z,0.20
2019-04-20T02:49:34.231Z,0.23
2019-04-20T02:51:46.965Z,0.40
2019-04-20T02:56:47.961Z,0.30
2019-04-20T02:59:45.106Z,0.30
2019-04-20T03:01:32.130Z,0.20
2019-04-20T03:03:48.932Z,0.30
2019-04-20T03:06:28.135Z,0.30
2019-04-20T03:09:08.973Z,0.30
2019-04-20T03:11:42.633Z,0.10
2019-04-20T03:14:07.242Z,0.37
2019-04-20T03:16:32.203Z,0.30
2019-04-20T03:18:58.305Z,0.25
2019-04-20T03:21:38.087Z,0.30
2019-04-20T03:24:12.717Z,0.30
2019-04-20T03:26:47.942Z,0.40
2019-04-20T03:29:15.948Z,0.30
2019-04-20T03:34:56.624Z,0.20
2019-04-20T03:36:59.383Z,0.17
2019-04-20T03:39:22.123Z,0.28
2019-04-20T03:41:43.244Z,0.30
2019-04-20T03:44:12.701Z,0.30
2019-04-20T03:46:45.532Z,0.20
2019-04-20T03:49:27.912Z,0.30
2019-04-20T03:51:57.427Z,0.20
2019-04-20T03:54:34.415Z,0.28
2019-04-20T03:57:21.209Z,0.20
2019-04-20T03:59:56.441Z,0.20
2019-04-20T04:02:54.599Z,0.20
2019-04-20T04:05:08.741Z,0.30
2019-04-20T04:07:30.507Z,0.30
2019-04-20T04:10:04.598Z,0.20
2019-04-20T04:12:43.219Z,0.27
2019-04-20T04:15:08.883Z,0.25
2019-04-20T04:17:41.625Z,0.20
2019-04-20T04:20:11.649Z,0.40
2019-04-20T04:22:50.016Z,0.30
2019-04-20T04:25:18.455Z,0.50
2019-04-20T04:27:55.089Z,0.42
2019-04-20T04:30:22.116Z,0.30
2019-04-20T04:33:20.686Z,0.40
2019-04-20T04:35:20.165Z,0.20
2019-04-20T04:37:56.130Z,0.30
2019-04-20T04:40:37.531Z,0.28
2019-04-20T04:42:57.978Z,0.30
2019-04-20T04:47:38.684Z,0.30
2019-04-20T04:50:13.061Z,0.20
2019-04-20T04:52:45.330Z,0.30
2019-04-20T04:55:19.939Z,0.33
2019-04-20T04:57:37.248Z,0.23
2019-04-20T05:00:11.129Z,0.17
2019-04-20T05:02:43.249Z,0.20
2019-04-20T05:05:42.512Z,0.20
2019-04-20T05:07:59.449Z,0.20
2019-04-20T05:10:20.681Z,0.30
2019-04-20T05:12:51.283Z,0.20
2019-04-20T05:15:32.527Z,0.20
2019-04-20T05:18:09.996Z,0.28
2019-04-20T05:20:45.104Z,0.20
2019-04-20T05:23:22.037Z,0.30
2019-04-20T05:26:05.437Z,0.20
2019-04-20T05:28:24.353Z,0.30
2019-04-20T05:30:48.593Z,0.30
2019-04-20T05:33:25.655Z,0.10
2019-04-20T05:36:06.786Z,0.30
2019-04-20T05:38:43.099Z,0.20
2019-04-20T05:41:04.528Z,0.17
2019-04-20T05:43:41.439Z,0.20
2019-04-20T05:46:18.447Z,0.10
2019-04-20T05:48:45.733Z,0.25
2019-04-20T05:51:21.156Z,0.20
2019-04-20T05:53:45.739Z,0.20
2019-04-20T05:56:10.842Z,0.27
2019-04-20T05:58:47.098Z,0.28
2019-04-20T06:01:18.186Z,0.20
2019-04-20T06:03:45.444Z,0.20
2019-04-20T06:06:20.429Z,0.30
2019-04-20T06:08:56.641Z,0.10
2019-04-20T06:11:16.237Z,0.23
2019-04-20T06:13:38.245Z,0.20
2019-04-20T06:16:13.927Z,0.30
2019-04-20T06:18:45.314Z,0.40
2019-04-20T06:21:32.337Z,0.33
2019-04-20T06:24:01.952Z,0.40
2019-04-20T06:26:44.138Z,0.55
2019-04-20T06:28:58.236Z,0.50
2019-04-20T06:31:37.709Z,0.37
2019-04-20T06:34:19.326Z,0.30
2019-04-20T06:36:43.011Z,0.20
2019-04-20T06:39:08.412Z,0.50
2019-04-20T06:41:55.395Z,0.35
2019-04-20T06:44:12.755Z,0.30
2019-04-20T06:46:34.928Z,0.42
2019-04-20T06:49:10.660Z,0.33
2019-04-20T06:51:47.355Z,0.40
2019-04-20T06:54:15.857Z,0.20
2019-04-20T06:57:04.292Z,0.30
2019-04-20T06:59:36.045Z,0.20
2019-04-20T07:02:03.897Z,0.20
2019-04-20T07:07:02.364Z,0.10
2019-04-20T07:09:40.090Z,0.20
2019-04-20T07:11:59.820Z,0.40
2019-04-20T07:14:17.216Z,0.20
2019-04-20T07:17:16.186Z,0.20
2019-04-20T07:19:28.672Z,0.40
2019-04-20T07:22:22.692Z,0.40
2019-04-20T07:24:42.911Z,0.25
2019-04-20T07:27:06.193Z,0.35
2019-04-20T07:32:01.793Z,0.28
2019-04-20T07:34:41.376Z,0.20
2019-04-20T07:37:51.573Z,0.20
2019-04-20T07:40:01.107Z,0.30
2019-04-20T07:42:28.473Z,0.20
2019-04-20T07:45:01.290Z,0.20
2019-04-20T07:47:38.322Z,0.10
2019-04-20T07:49:55.409Z,0.23
2019-04-20T07:52:06.247Z,0.17
2019-04-20T07:55:13.580Z,0.10
2019-04-20T07:57:24.694Z,0.20
2019-04-20T07:59:53.869Z,0.30
2019-04-20T08:02:48.877Z,0.30
2019-04-20T08:05:11.930Z,0.23
2019-04-20T08:07:39.087Z,0.20
2019-04-20T08:10:02.453Z,0.23
2019-04-20T08:12:58.391Z,0.37
2019-04-20T08:17:56.546Z,0.40
2019-04-20T08:20:19.990Z,0.40
2019-04-20T08:22:55.205Z,0.30
2019-04-20T08:25:15.345Z,0.30
2019-04-20T08:27:49.303Z,0.30
2019-04-20T08:30:56.058Z,0.20
2019-04-20T08:33:29.909Z,0.40
2019-04-20T08:36:04.416Z,0.40
2019-04-20T08:38:58.015Z,0.30
2019-04-20T08:41:00.151Z,0.30
2019-04-20T08:43:43.644Z,0.30
2019-04-20T08:46:03.103Z,0.28
2019-04-20T08:48:34.542Z,0.30
2019-04-20T08:51:03.616Z,0.20
2019-04-20T08:53:34.685Z,0.20
2019-04-20T08:55:55.855Z,0.30
2019-04-20T08:58:13.755Z,0.50
2019-04-20T09:00:48.471Z,0.62
2019-04-20T09:03:18.052Z,0.40
2019-04-20T09:05:52.553Z,0.40
2019-04-20T09:08:20.754Z,0.30
2019-04-20T09:11:00.056Z,0.30
2019-04-20T09:13:21.130Z,0.30
2019-04-20T09:15:42.566Z,0.13
2019-04-20T09:18:25.112Z,0.20
2019-04-20T09:20:53.817Z,0.30
2019-04-20T09:23:33.960Z,0.28
2019-04-20T09:26:10.478Z,0.20
2019-04-20T09:28:30.890Z,0.30
2019-04-20T09:31:10.808Z,0.40
2019-04-20T09:33:51.112Z,0.23
2019-04-20T09:36:35.279Z,0.30
2019-04-20T09:39:08.605Z,0.30
2019-04-20T09:41:59.642Z,0.50
2019-04-20T09:44:16.151Z,0.60
2019-04-20T09:46:49.801Z,0.40
2019-04-20T09:49:23.864Z,0.40
2019-04-20T09:52:01.473Z,0.30
2019-04-20T09:54:34.453Z,0.30
2019-04-20T09:57:07.501Z,0.60
2019-04-20T09:59:33.169Z,0.42
2019-04-20T10:04:13.271Z,0.70
2019-04-20T10:06:41.615Z,0.40
2019-04-20T10:09:09.843Z,0.40
2019-04-20T10:11:41.331Z,0.30
2019-04-20T10:14:08.272Z,0.50
2019-04-20T10:16:37.874Z,0.60
2019-04-20T10:19:07.857Z,0.70
2019-04-20T10:21:36.072Z,0.40
2019-04-20T10:24:06.311Z,0.30
2019-04-20T10:26:34.526Z,0.65
2019-04-20T10:29:03.543Z,0.35
2019-04-20T10:31:37.707Z,0.45
2019-04-20T10:34:01.755Z,0.88
2019-04-20T10:36:31.539Z,0.60
2019-04-20T10:39:00.303Z,0.50
2019-04-20T10:41:37.963Z,0.55
2019-04-20T10:43:58.748Z,0.80
2019-04-20T10:46:27.003Z,0.90
2019-04-20T10:48:59.356Z,0.60
2019-04-20T10:51:25.928Z,0.35
2019-04-20T10:53:54.253Z,0.80
2019-04-20T10:56:25.378Z,0.90
2019-04-20T10:58:53.869Z,0.90
2019-04-20T11:01:22.160Z,1.00
2019-04-20T11:03:50.422Z,1.17
2019-04-20T11:06:18.741Z,0.50
2019-04-20T11:08:46.978Z,0.75
2019-04-20T11:11:22.837Z,1.17
2019-04-20T11:13:45.637Z,1.30
2019-04-20T11:16:14.772Z,1.70
2019-04-20T11:18:43.313Z,1.30
2019-04-20T11:21:11.545Z,1.82
2019-04-20T11:23:40.415Z,1.20
2019-04-20T11:26:08.741Z,2.72
2019-04-20T11:28:37.837Z,1.95
2019-04-20T11:31:06.099Z,1.60
2019-04-20T11:33:34.308Z,1.25
2019-04-20T11:36:03.564Z,1.30
2019-04-20T11:38:33.069Z,1.50
2019-04-20T11:41:10.531Z,1.77
2019-04-20T11:43:31.484Z,1.52
2019-04-20T11:48:27.476Z,0.88
2019-04-20T11:50:55.860Z,0.75
2019-04-20T11:53:26.706Z,0.65
2019-04-20T11:55:54.265Z,0.62
2019-04-20T11:58:24.023Z,0.60
2019-04-20T12:01:02.161Z,0.60
2019-04-20T12:03:33.286Z,0.50
2019-04-20T12:06:01.125Z,1.02
2019-04-20T12:08:27.251Z,1.02
2019-04-20T12:10:59.597Z,0.85
2019-04-20T12:13:25.242Z,0.80
2019-04-20T12:15:53.862Z,1.50
2019-04-20T12:18:23.387Z,1.22
2019-04-20T12:20:52.609Z,0.82
2019-04-20T12:23:22.194Z,0.53
2019-04-20T12:25:50.524Z,0.80
2019-04-20T12:28:19.865Z,0.70
2019-04-20T12:30:49.165Z,0.60
2019-04-20T12:33:17.801Z,0.62
2019-04-20T12:35:46.043Z,0.60
2019-04-20T12:38:14.882Z,0.80
2019-04-20T12:40:44.033Z,0.60
2019-04-20T12:43:13.220Z,0.82
2019-04-20T12:45:42.069Z,1.00
2019-04-20T12:48:11.434Z,0.93
2019-04-20T12:50:39.696Z,0.85
2019-04-20T12:53:08.581Z,0.80
2019-04-20T12:55:36.862Z,0.70
2019-04-20T12:58:05.119Z,0.62
2019-04-20T13:00:41.677Z,0.70
2019-04-20T13:03:10.056Z,0.80
2019-04-20T13:05:38.229Z,0.60
2019-04-20T13:08:07.635Z,0.70
2019-04-20T13:10:37.139Z,0.50
2019-04-20T13:13:23.764Z,1.05
2019-04-20T13:15:54.335Z,0.60
2019-04-20T13:18:25.346Z,0.68
2019-04-20T13:20:57.990Z,1.05
2019-04-20T13:23:24.828Z,0.78
2019-04-20T13:25:53.110Z,0.78
2019-04-20T13:28:21.377Z,0.50
2019-04-20T13:30:50.108Z,0.53
2019-04-20T13:33:19.657Z,0.85
2019-04-20T13:35:48.199Z,0.50
2019-04-20T13:38:16.454Z,0.80
2019-04-20T13:40:45.869Z,0.70
2019-04-20T13:43:14.147Z,0.60
2019-04-20T13:45:42.666Z,0.68
2019-04-20T13:48:11.037Z,0.62
2019-04-20T13:50:40.064Z,0.50
2019-04-20T13:53:09.571Z,0.70
2019-04-20T13:55:38.906Z,0.80
2019-04-20T13:58:10.028Z,0.72
2019-04-20T14:00:44.987Z,0.90
2019-04-20T14:03:15.038Z,0.68
2019-04-20T14:05:44.462Z,0.70
2019-04-20T14:08:15.545Z,0.70
2019-04-20T14:10:45.114Z,0.57
2019-04-20T14:13:17.024Z,0.65
2019-04-20T14:15:43.144Z,0.60
2019-04-20T14:18:11.289Z,0.57
2019-04-20T14:20:40.280Z,0.68
2019-04-20T14:23:09.513Z,0.60
2019-04-20T14:25:38.744Z,1.10
2019-04-20T14:28:07.032Z,0.60
2019-04-20T14:30:35.315Z,0.57
2019-04-20T14:33:03.530Z,0.40
2019-04-20T14:35:32.629Z,0.50
2019-04-20T14:38:01.978Z,0.50
2019-04-20T14:40:30.359Z,1.00
2019-04-20T14:43:00.050Z,0.85
2019-04-20T14:45:28.871Z,0.80
2019-04-20T14:47:57.503Z,0.45
2019-04-20T14:50:27.311Z,0.60
2019-04-20T14:52:55.807Z,0.40
2019-04-20T14:55:24.198Z,0.47
2019-04-20T14:57:53.210Z,0.37
2019-04-20T15:00:41.661Z,0.30
2019-04-20T15:03:30.220Z,0.65
2019-04-20T15:05:59.999Z,0.50
2019-04-20T15:08:28.295Z,0.45
2019-04-20T15:10:56.918Z,0.40
2019-04-20T15:13:25.082Z,0.50
2019-04-20T15:15:54.756Z,0.30
2019-04-20T15:20:57.429Z,0.47
2019-04-20T15:23:27.781Z,0.50
2019-04-20T15:25:56.092Z,0.30
2019-04-20T15:28:24.271Z,0.30
2019-04-20T15:30:52.370Z,0.30
2019-04-20T15:33:21.019Z,0.47
2019-04-20T15:35:50.332Z,0.37
2019-04-20T15:38:18.585Z,0.30
2019-04-20T15:40:47.009Z,0.70
2019-04-20T15:43:19.451Z,0.30
2019-04-20T15:45:47.419Z,0.30
2019-04-20T15:48:16.320Z,0.30
2019-04-20T15:50:45.769Z,0.25
2019-04-20T15:53:15.528Z,0.20
2019-04-20T15:55:45.649Z,0.17
2019-04-20T15:58:14.344Z,0.20
2019-04-20T16:00:42.626Z,0.10
2019-04-20T16:03:15.464Z,0.10
2019-04-20T16:05:49.361Z,0.20
2019-04-20T16:08:21.847Z,0.17
2019-04-20T16:10:50.943Z,0.20
2019-04-20T16:13:26.022Z,0.30
2019-04-20T16:15:49.774Z,0.10
2019-04-20T16:18:18.899Z,0.10
2019-04-20T16:20:56.422Z,0.20
2019-04-20T16:23:16.940Z,0.10
2019-04-20T16:25:53.435Z,0.20
2019-04-20T16:28:21.729Z,0.20
2019-04-20T16:30:49.964Z,0.10
2019-04-20T16:33:19.196Z,0.10
2019-04-20T16:35:47.776Z,0.10
2019-04-20T16:38:16.155Z,0.10
2019-04-20T16:40:44.479Z,0.10
2019-04-20T16:43:23.335Z,0.15
2019-04-20T16:45:43.231Z,0.10
2019-04-20T16:48:12.366Z,0.10
2019-04-20T16:50:40.814Z,0.20
2019-04-20T16:53:09.008Z,0.13
2019-04-20T16:55:37.119Z,0.20
2019-04-20T16:58:05.954Z,0.20
2019-04-20T17:00:35.592Z,0.20
2019-04-20T17:03:04.003Z,0.20
2019-04-20T17:05:33.090Z,0.40
2019-04-20T17:08:02.686Z,0.30
2019-04-20T17:10:31.144Z,0.40
2019-04-20T17:12:59.888Z,0.20
2019-04-20T17:15:29.562Z,0.20
2019-04-20T17:17:58.901Z,0.15
2019-04-20T17:20:28.747Z,0.40
2019-04-20T17:22:58.196Z,0.20
2019-04-20T17:25:27.935Z,0.20
2019-04-20T17:28:15.027Z,0.30
2019-04-20T17:31:01.457Z,0.20
2019-04-20T17:33:33.787Z,0.40
2019-04-20T17:36:10.872Z,0.28
2019-04-20T17:38:37.627Z,0.30
2019-04-20T17:41:17.883Z,0.40
2019-04-20T17:43:43.740Z,0.20
2019-04-20T17:46:10.129Z,0.50
2019-04-20T17:48:43.271Z,0.17
2019-04-20T17:51:22.416Z,0.30
2019-04-20T17:53:49.097Z,0.20
2019-04-20T17:56:12.179Z,0.20
2019-04-20T17:58:41.332Z,0.30
2019-04-20T18:01:28.204Z,0.20
2019-04-20T18:06:50.464Z,0.33
2019-04-20T18:09:34.437Z,0.20
2019-04-20T18:11:45.343Z,0.23
2019-04-20T18:14:28.514Z,0.20
2019-04-20T18:17:10.470Z,0.15
2019-04-20T18:19:27.729Z,0.20
2019-04-20T18:21:55.949Z,0.20
2019-04-20T18:24:49.005Z,0.30
2019-04-20T18:27:17.351Z,0.20
2019-04-20T18:29:40.888Z,0.20
2019-04-20T18:32:07.325Z,0.20
2019-04-20T18:34:40.317Z,0.23
2019-04-20T18:37:11.951Z,0.40
2019-04-20T18:39:46.258Z,0.30
2019-04-20T18:42:16.501Z,0.33
2019-04-20T18:44:57.339Z,0.40
2019-04-20T18:47:29.111Z,0.40
2019-04-20T18:49:49.525Z,0.33
2019-04-20T18:52:09.411Z,0.35
2019-04-20T18:54:42.451Z,0.25
2019-04-20T18:57:14.340Z,0.20
2019-04-20T18:59:43.785Z,0.20
2019-04-20T19:02:14.917Z,0.10
2019-04-20T19:07:05.925Z,0.10
2019-04-20T19:09:34.708Z,0.10
2019-04-20T19:12:09.097Z,0.25
2019-04-20T19:15:05.023Z,0.10
2019-04-20T19:17:57.122Z,0.20
2019-04-20T19:20:28.844Z,0.20
2019-04-20T19:22:57.903Z,0.10
2019-04-20T19:25:31.709Z,0.20
2019-04-20T19:27:58.384Z,0.20
2019-04-20T19:30:35.433Z,0.30
2019-04-20T19:33:14.971Z,0.30
2019-04-20T19:35:39.195Z,0.20
2019-04-20T19:38:06.620Z,0.20
2019-04-20T19:40:40.333Z,0.25
2019-04-20T19:43:08.119Z,0.37
2019-04-20T19:45:51.242Z,0.35
2019-04-20T19:48:12.355Z,0.30
2019-04-20T19:50:53.507Z,0.20
2019-04-20T19:53:22.746Z,0.20
2019-04-20T19:55:40.869Z,0.23
2019-04-20T19:58:09.727Z,0.17
2019-04-20T20:00:46.729Z,0.30
2019-04-20T20:03:13.380Z,0.30
2019-04-20T20:05:46.353Z,0.20
2019-04-20T20:08:17.868Z,0.28
2019-04-20T20:10:44.167Z,0.10
2019-04-20T20:13:13.030Z,0.10
2019-04-20T20:15:43.668Z,0.20
2019-04-20T20:18:30.975Z,0.20
2019-04-20T20:20:59.677Z,0.10
2019-04-20T20:23:14.282Z,0.35
2019-04-20T20:25:45.891Z,0.15
2019-04-20T20:28:25.618Z,0.30
2019-04-20T20:30:53.634Z,0.20
2019-04-20T20:33:27.824Z,0.20
2019-04-20T20:35:51.817Z,0.20
2019-04-20T20:38:19.197Z,0.20
2019-04-20T20:40:54.545Z,0.10
2019-04-20T20:43:22.641Z,0.20
2019-04-20T20:45:50.510Z,0.20
2019-04-20T20:48:26.368Z,0.30
2019-04-20T20:50:58.760Z,0.10
2019-04-20T20:53:21.866Z,0.28
2019-04-20T20:55:46.464Z,0.20
2019-04-20T20:58:18.336Z,0.20
2019-04-20T21:00:55.385Z,0.30
2019-04-20T21:03:22.718Z,0.33
2019-04-20T21:05:43.551Z,0.35
2019-04-20T21:08:11.724Z,0.30
2019-04-20T21:10:42.109Z,0.40
2019-04-20T21:13:10.936Z,0.50
2019-04-20T21:15:40.580Z,0.30
2019-04-20T21:18:34.504Z,0.50
2019-04-20T21:20:55.251Z,0.50
2019-04-20T21:23:25.457Z,0.30
2019-04-20T21:25:57.035Z,0.30
2019-04-20T21:28:26.920Z,0.40
2019-04-20T21:30:57.828Z,0.40
2019-04-20T21:33:28.897Z,0.47
2019-04-20T21:35:55.119Z,0.50
2019-04-20T21:38:24.910Z,0.40
2019-04-20T21:41:02.266Z,0.33
2019-04-20T21:43:29.961Z,0.40
2019-04-20T21:45:59.513Z,0.20
2019-04-20T21:48:40.631Z,0.40
2019-04-20T21:51:11.594Z,0.30
2019-04-20T21:53:29.593Z,0.40
2019-04-20T21:55:55.060Z,0.50
2019-04-20T21:58:27.726Z,0.50
2019-04-20T22:01:08.120Z,0.50
2019-04-20T22:03:26.830Z,0.25
2019-04-20T22:05:58.075Z,0.50
2019-04-20T22:08:26.400Z,0.70
2019-04-20T22:10:55.451Z,0.50
2019-04-20T22:13:29.395Z,0.40
2019-04-20T22:15:59.117Z,0.53
2019-04-20T22:18:25.335Z,0.65
2019-04-20T22:21:04.697Z,0.57
2019-04-20T22:23:45.013Z,0.50
2019-04-20T22:26:03.667Z,0.42
2019-04-20T22:28:22.771Z,0.50
2019-04-20T22:30:50.936Z,0.40
2019-04-20T22:33:25.015Z,0.45
2019-04-20T22:35:57.322Z,0.50
2019-04-20T22:38:37.550Z,0.40
2019-04-20T22:41:11.957Z,0.40
2019-04-20T22:43:38.229Z,0.57
2019-04-20T22:46:05.396Z,0.50
2019-04-20T22:48:33.693Z,0.50
2019-04-20T22:51:19.672Z,0.45
2019-04-20T22:53:45.392Z,0.50
2019-04-20T22:56:21.088Z,0.50
2019-04-20T22:58:43.293Z,0.40
2019-04-20T23:01:04.715Z,0.47
2019-04-20T23:03:30.890Z,0.47
2019-04-20T23:06:00.663Z,0.45
2019-04-20T23:08:28.910Z,0.65
2019-04-20T23:10:57.530Z,0.60
2019-04-20T23:13:30.381Z,0.65
2019-04-20T23:16:00.095Z,0.70
2019-04-20T23:18:26.517Z,0.50
2019-04-20T23:21:02.727Z,0.68
2019-04-20T23:23:29.208Z,0.50
2019-04-20T23:25:56.826Z,0.47
2019-04-20T23:28:25.095Z,0.70
2019-04-20T23:31:00.102Z,0.70
2019-04-20T23:33:23.427Z,0.73
2019-04-20T23:35:56.297Z,0.60
2019-04-20T23:38:24.240Z,0.80
2019-04-20T23:40:52.134Z,0.40
2019-04-20T23:43:27.096Z,0.65
2019-04-20T23:45:54.791Z,0.57
2019-04-20T23:48:37.678Z,0.70
2019-04-20T23:51:29.961Z,0.60
2019-04-20T23:53:47.700Z,0.60
2019-04-20T23:56:03.725Z,0.40
2019-04-20T23:58:40.053Z,0.50
